createdAt,value
2018-03-08T00:01:13.929Z,6.40
2018-03-08T00:03:40.162Z,6.40
2018-03-08T00:06:06.346Z,6.40
2018-03-08T00:08:33.258Z,6.40
2018-03-08T00:10:59.493Z,6.40
2018-03-08T00:13:25.734Z,6.50
2018-03-08T00:15:51.994Z,6.50
2018-03-08T00:18:18.175Z,6.60
2018-03-08T00:20:44.353Z,6.60
2018-03-08T00:23:10.597Z,6.60
2018-03-08T00:25:36.801Z,6.60
2018-03-08T00:28:03.017Z,6.60
2018-03-08T00:30:30.013Z,6.60
2018-03-08T00:32:56.270Z,6.60
2018-03-08T00:35:22.472Z,6.60
2018-03-08T00:37:48.649Z,6.60
2018-03-08T00:40:15.644Z,6.50
2018-03-08T00:42:41.865Z,6.50
2018-03-08T00:45:08.022Z,6.50
2018-03-08T00:47:34.301Z,6.50
2018-03-08T00:50:00.516Z,6.50
2018-03-08T00:52:26.705Z,6.40
2018-03-08T00:54:52.923Z,6.30
2018-03-08T00:57:19.173Z,6.30
2018-03-08T00:59:45.376Z,6.20
2018-03-08T01:02:11.593Z,6.20
2018-03-08T01:04:37.853Z,6.10
2018-03-08T01:07:04.055Z,6.00
2018-03-08T01:09:30.249Z,5.90
2018-03-08T01:11:56.501Z,6.00
2018-03-08T01:14:22.709Z,5.90
2018-03-08T01:16:48.929Z,5.80
2018-03-08T01:19:15.208Z,5.80
2018-03-08T01:21:41.416Z,5.70
2018-03-08T01:24:07.602Z,5.70
2018-03-08T01:26:33.848Z,5.80
2018-03-08T01:29:00.060Z,5.80
2018-03-08T01:31:26.230Z,5.70
2018-03-08T01:33:52.485Z,5.80
2018-03-08T01:36:26.768Z,5.80
2018-03-08T01:38:53.021Z,5.80
2018-03-08T01:41:19.226Z,5.80
2018-03-08T01:43:45.446Z,5.80
2018-03-08T01:46:11.687Z,5.80
2018-03-08T01:48:37.877Z,5.80
2018-03-08T01:51:04.153Z,5.80
2018-03-08T01:53:30.391Z,5.80
2018-03-08T01:55:56.583Z,5.80
2018-03-08T01:58:22.755Z,5.80
2018-03-08T02:00:49.013Z,5.80
2018-03-08T02:03:15.225Z,5.80
2018-03-08T02:05:42.160Z,5.80
2018-03-08T02:08:08.422Z,5.70
2018-03-08T02:10:34.645Z,5.80
2018-03-08T02:13:00.843Z,5.70
2018-03-08T02:15:27.097Z,5.80
2018-03-08T02:17:53.313Z,5.70
2018-03-08T02:20:20.253Z,5.70
2018-03-08T02:22:47.305Z,5.80
2018-03-08T02:25:14.235Z,5.80
2018-03-08T02:27:40.481Z,5.70
2018-03-08T02:30:07.400Z,5.80
2018-03-08T02:32:33.610Z,5.80
2018-03-08T02:34:59.833Z,5.70
2018-03-08T02:37:26.039Z,5.80
2018-03-08T02:39:52.244Z,5.80
2018-03-08T02:42:18.480Z,5.80
2018-03-08T02:44:44.641Z,5.80
2018-03-08T02:47:10.828Z,5.80
2018-03-08T02:49:37.144Z,5.80
2018-03-08T02:52:04.107Z,5.80
2018-03-08T02:54:30.325Z,5.70
2018-03-08T02:56:56.583Z,5.80
2018-03-08T02:59:22.765Z,5.80
2018-03-08T03:01:49.716Z,5.80
2018-03-08T03:04:15.927Z,5.70
2018-03-08T03:06:42.151Z,5.80
2018-03-08T03:09:08.355Z,5.70
2018-03-08T03:11:34.592Z,5.70
2018-03-08T03:14:00.748Z,5.70
2018-03-08T03:16:27.689Z,5.60
2018-03-08T03:18:53.910Z,5.60
2018-03-08T03:21:20.105Z,5.60
2018-03-08T03:23:46.317Z,5.60
2018-03-08T03:26:12.561Z,5.70
2018-03-08T03:28:38.732Z,5.70
2018-03-08T03:31:04.946Z,5.70
2018-03-08T03:33:31.179Z,5.70
2018-03-08T03:35:57.383Z,5.70
2018-03-08T03:38:23.614Z,5.70
2018-03-08T03:40:49.809Z,5.80
2018-03-08T03:43:16.019Z,5.80
2018-03-08T03:45:42.271Z,5.80
2018-03-08T03:48:08.446Z,5.70
2018-03-08T03:50:34.737Z,5.70
2018-03-08T03:53:00.938Z,5.70
2018-03-08T03:55:27.212Z,5.80
2018-03-08T03:57:53.371Z,5.80
2018-03-08T04:00:20.344Z,5.80
2018-03-08T04:02:46.575Z,5.70
2018-03-08T04:05:12.768Z,5.80
2018-03-08T04:07:39.704Z,5.80
2018-03-08T04:10:05.924Z,5.80
2018-03-08T04:12:32.160Z,5.70
2018-03-08T04:14:58.381Z,5.80
2018-03-08T04:17:24.617Z,5.70
2018-03-08T04:19:51.568Z,5.70
2018-03-08T04:22:18.505Z,5.60
2018-03-08T04:24:44.767Z,5.60
2018-03-08T04:27:10.948Z,5.70
2018-03-08T04:29:37.115Z,5.70
2018-03-08T04:32:03.292Z,5.70
2018-03-08T04:34:29.481Z,5.80
2018-03-08T04:36:55.677Z,5.80
2018-03-08T04:39:22.611Z,5.80
2018-03-08T04:41:48.795Z,5.80
2018-03-08T04:44:14.992Z,5.90
2018-03-08T04:46:41.171Z,5.90
2018-03-08T04:49:07.362Z,6.00
2018-03-08T04:51:33.583Z,6.00
2018-03-08T04:53:59.789Z,6.00
2018-03-08T04:56:26.737Z,5.90
2018-03-08T04:58:53.660Z,6.00
2018-03-08T05:01:19.848Z,5.90
2018-03-08T05:03:46.042Z,6.00
2018-03-08T05:06:12.235Z,6.00
2018-03-08T05:08:38.452Z,6.00
2018-03-08T05:11:04.650Z,6.00
2018-03-08T05:13:30.847Z,6.00
2018-03-08T05:15:57.853Z,6.00
2018-03-08T05:18:24.069Z,6.00
2018-03-08T05:20:50.236Z,6.10
2018-03-08T05:23:16.437Z,6.10
2018-03-08T05:25:42.612Z,6.10
2018-03-08T05:28:08.803Z,6.20
2018-03-08T05:30:34.997Z,6.20
2018-03-08T05:33:01.211Z,6.20
2018-03-08T05:35:27.416Z,6.30
2018-03-08T05:37:54.374Z,6.10
2018-03-08T05:40:20.583Z,6.10
2018-03-08T05:42:47.491Z,6.00
2018-03-08T05:45:13.710Z,6.00
2018-03-08T05:47:39.921Z,6.00
2018-03-08T05:50:06.137Z,6.00
2018-03-08T05:52:32.351Z,6.00
2018-03-08T05:54:58.503Z,6.00
2018-03-08T05:57:24.737Z,6.00
2018-03-08T05:59:50.964Z,6.00
2018-03-08T06:02:17.154Z,6.00
2018-03-08T06:04:43.361Z,6.00
2018-03-08T06:07:10.365Z,6.00
2018-03-08T06:09:36.568Z,6.00
2018-03-08T06:12:02.728Z,6.00
2018-03-08T06:14:28.973Z,6.00
2018-03-08T06:16:55.165Z,6.00
2018-03-08T06:19:21.407Z,6.00
2018-03-08T06:21:47.609Z,6.00
2018-03-08T06:24:13.879Z,6.10
2018-03-08T06:26:40.099Z,6.10
2018-03-08T06:29:06.338Z,6.10
2018-03-08T06:31:32.583Z,6.10
2018-03-08T06:34:02.238Z,6.10
2018-03-08T06:36:28.456Z,6.10
2018-03-08T06:38:54.649Z,6.10
2018-03-08T06:41:20.847Z,6.00
2018-03-08T06:43:47.076Z,6.00
2018-03-08T06:46:13.306Z,6.00
2018-03-08T06:48:39.545Z,6.00
2018-03-08T06:51:05.773Z,6.00
2018-03-08T06:53:31.989Z,5.90
2018-03-08T06:55:58.204Z,5.90
2018-03-08T06:58:24.408Z,5.90
2018-03-08T07:00:50.703Z,5.90
2018-03-08T07:03:17.637Z,6.00
2018-03-08T07:05:43.821Z,6.00
2018-03-08T07:08:10.032Z,6.00
2018-03-08T07:10:36.224Z,6.00
2018-03-08T07:13:02.480Z,6.00
2018-03-08T07:15:28.677Z,6.00
2018-03-08T07:17:54.963Z,6.10
2018-03-08T07:20:21.177Z,6.10
2018-03-08T07:22:47.351Z,6.10
2018-03-08T07:25:13.593Z,6.20
2018-03-08T07:27:40.570Z,6.20
2018-03-08T07:30:06.785Z,6.20
2018-03-08T07:32:33.729Z,6.20
2018-03-08T07:34:59.932Z,6.20
2018-03-08T07:37:26.155Z,6.30
2018-03-08T07:39:52.373Z,6.40
2018-03-08T07:42:18.601Z,6.40
2018-03-08T07:44:44.800Z,6.50
2018-03-08T07:47:11.000Z,6.50
2018-03-08T07:49:37.949Z,6.70
2018-03-08T07:52:04.852Z,6.70
2018-03-08T07:54:31.042Z,6.70
2018-03-08T07:56:57.272Z,6.80
2018-03-08T07:59:23.465Z,6.80
2018-03-08T08:01:50.393Z,6.90
2018-03-08T08:04:29.014Z,6.90
2018-03-08T08:07:08.220Z,7.10
2018-03-08T08:09:34.418Z,7.00
2018-03-08T08:12:00.614Z,7.10
2018-03-08T08:14:27.539Z,7.20
2018-03-08T08:16:53.710Z,7.10
2018-03-08T08:19:19.939Z,7.20
2018-03-08T08:21:46.172Z,7.20
2018-03-08T08:24:12.397Z,7.30
2018-03-08T08:26:38.652Z,7.30
2018-03-08T08:29:04.870Z,7.40
2018-03-08T08:31:31.085Z,7.50
2018-03-08T08:33:57.285Z,7.60
2018-03-08T08:36:24.259Z,7.70
2018-03-08T08:38:50.447Z,7.60
2018-03-08T08:41:17.375Z,7.70
2018-03-08T08:43:43.573Z,7.70
2018-03-08T08:46:09.808Z,7.80
2018-03-08T08:48:35.998Z,7.80
2018-03-08T08:51:02.266Z,7.80
2018-03-08T08:53:28.431Z,7.90
2018-03-08T08:55:54.609Z,7.80
2018-03-08T08:58:20.837Z,7.90
2018-03-08T09:00:47.099Z,7.90
2018-03-08T09:03:13.298Z,7.90
2018-03-08T09:05:39.521Z,8.00
2018-03-08T09:08:05.738Z,8.10
2018-03-08T09:10:31.935Z,8.10
2018-03-08T09:12:58.897Z,8.20
2018-03-08T09:15:25.106Z,8.20
2018-03-08T09:17:52.088Z,8.30
2018-03-08T09:20:18.270Z,8.30
2018-03-08T09:22:45.237Z,8.40
2018-03-08T09:25:11.424Z,8.40
2018-03-08T09:27:37.602Z,8.40
2018-03-08T09:30:03.867Z,8.50
2018-03-08T09:32:30.065Z,8.60
2018-03-08T09:34:56.284Z,8.60
2018-03-08T09:37:22.497Z,8.70
2018-03-08T09:39:48.716Z,8.80
2018-03-08T09:42:15.624Z,8.90
2018-03-08T09:44:41.838Z,8.90
2018-03-08T09:47:08.070Z,9.00
2018-03-08T09:49:34.260Z,9.00
2018-03-08T09:52:00.467Z,9.10
2018-03-08T09:54:27.386Z,9.20
2018-03-08T09:56:53.598Z,9.20
2018-03-08T09:59:19.807Z,9.30
2018-03-08T10:01:46.020Z,9.30
2018-03-08T10:04:12.245Z,9.40
2018-03-08T10:06:38.432Z,9.40
2018-03-08T10:09:04.707Z,9.50
2018-03-08T10:11:30.914Z,9.50
2018-03-08T10:13:57.128Z,9.50
2018-03-08T10:16:23.344Z,9.60
2018-03-08T10:18:49.529Z,9.60
2018-03-08T10:21:15.733Z,9.60
2018-03-08T10:23:41.954Z,9.70
2018-03-08T10:26:08.914Z,9.80
2018-03-08T10:28:35.114Z,9.70
2018-03-08T10:31:02.059Z,9.80
2018-03-08T10:33:29.009Z,9.80
2018-03-08T10:35:55.937Z,9.90
2018-03-08T10:38:22.140Z,9.90
2018-03-08T10:40:48.363Z,10.00
2018-03-08T10:43:14.544Z,10.00
2018-03-08T10:45:41.489Z,10.10
2018-03-08T10:48:08.446Z,10.10
2018-03-08T10:50:34.640Z,10.10
2018-03-08T10:53:00.876Z,10.20
2018-03-08T10:55:27.856Z,10.20
2018-03-08T10:57:54.067Z,10.20
2018-03-08T11:00:27.096Z,10.40
2018-03-08T11:02:54.113Z,10.30
2018-03-08T11:05:21.273Z,10.40
2018-03-08T11:07:47.510Z,10.40
2018-03-08T11:10:13.706Z,10.40
2018-03-08T11:12:40.641Z,10.50
2018-03-08T11:15:06.816Z,10.50
2018-03-08T11:17:33.021Z,10.60
2018-03-08T11:19:59.250Z,10.60
2018-03-08T11:22:25.435Z,10.60
2018-03-08T11:24:51.620Z,10.60
2018-03-08T11:27:17.830Z,10.70
2018-03-08T11:29:44.057Z,10.70
2018-03-08T11:32:10.312Z,10.80
2018-03-08T11:34:36.510Z,10.90
2018-03-08T11:37:02.745Z,11.00
2018-03-08T11:39:28.970Z,11.10
2018-03-08T11:41:55.153Z,11.10
2018-03-08T11:44:21.325Z,11.20
2018-03-08T11:46:47.521Z,11.20
2018-03-08T11:49:14.451Z,11.30
2018-03-08T11:51:40.620Z,11.30
2018-03-08T11:54:06.800Z,11.40
2018-03-08T11:56:33.017Z,11.40
2018-03-08T11:58:59.244Z,11.50
2018-03-08T12:01:25.407Z,11.50
2018-03-08T12:03:52.359Z,11.60
2018-03-08T12:06:18.614Z,11.60
2018-03-08T12:08:44.836Z,11.70
2018-03-08T12:11:11.009Z,11.80
2018-03-08T12:13:37.214Z,11.80
2018-03-08T12:16:03.470Z,11.90
2018-03-08T12:18:29.627Z,12.00
2018-03-08T12:20:55.847Z,12.10
2018-03-08T12:23:22.040Z,12.10
2018-03-08T12:25:48.270Z,12.00
2018-03-08T12:28:14.432Z,12.00
2018-03-08T12:30:40.647Z,12.00
2018-03-08T12:33:07.580Z,12.10
2018-03-08T12:35:33.820Z,12.10
2018-03-08T12:37:59.969Z,12.20
2018-03-08T12:40:26.156Z,12.30
2018-03-08T12:42:52.388Z,12.20
2018-03-08T12:45:18.613Z,12.20
2018-03-08T12:47:44.847Z,12.30
2018-03-08T12:50:11.809Z,12.30
2018-03-08T12:52:38.742Z,12.20
2018-03-08T12:55:05.712Z,12.40
2018-03-08T12:57:31.926Z,12.30
2018-03-08T12:59:58.867Z,12.40
2018-03-08T13:02:25.814Z,12.50
2018-03-08T13:04:52.762Z,12.50
2018-03-08T13:07:19.677Z,12.50
2018-03-08T13:09:45.909Z,12.50
2018-03-08T13:12:12.091Z,12.50
2018-03-08T13:14:38.300Z,12.50
2018-03-08T13:17:04.528Z,12.60
2018-03-08T13:19:30.775Z,12.60
2018-03-08T13:21:57.677Z,12.80
2018-03-08T13:24:24.628Z,12.80
2018-03-08T13:26:51.536Z,12.90
2018-03-08T13:29:17.736Z,12.90
2018-03-08T13:31:43.990Z,12.90
2018-03-08T13:34:10.170Z,12.90
2018-03-08T13:36:36.393Z,12.90
2018-03-08T13:39:02.665Z,13.00
2018-03-08T13:41:28.880Z,13.00
2018-03-08T13:43:55.082Z,13.10
2018-03-08T13:46:21.276Z,13.20
2018-03-08T13:48:47.461Z,13.30
2018-03-08T13:51:13.666Z,13.20
2018-03-08T13:53:39.852Z,13.20
2018-03-08T13:56:06.064Z,13.20
2018-03-08T13:58:32.232Z,13.10
2018-03-08T14:00:59.123Z,13.20
2018-03-08T14:03:25.374Z,13.20
2018-03-08T14:05:51.572Z,13.20
2018-03-08T14:08:17.789Z,13.30
2018-03-08T14:10:44.022Z,13.20
2018-03-08T14:13:10.239Z,13.20
2018-03-08T14:15:36.464Z,13.10
2018-03-08T14:18:02.704Z,13.10
2018-03-08T14:20:28.942Z,13.10
2018-03-08T14:22:55.166Z,13.10
2018-03-08T14:25:21.403Z,13.10
2018-03-08T14:27:47.599Z,13.10
2018-03-08T14:30:13.830Z,13.10
2018-03-08T14:32:40.043Z,13.10
2018-03-08T14:35:06.274Z,13.10
2018-03-08T14:37:32.523Z,13.20
2018-03-08T14:39:58.772Z,13.10
2018-03-08T14:42:25.012Z,13.10
2018-03-08T14:44:51.197Z,13.10
2018-03-08T14:47:17.453Z,13.10
2018-03-08T14:49:43.735Z,13.10
2018-03-08T14:52:09.976Z,13.00
2018-03-08T14:54:36.202Z,13.10
2018-03-08T14:57:02.406Z,13.10
2018-03-08T14:59:29.349Z,13.10
2018-03-08T15:01:55.572Z,13.10
2018-03-08T15:04:21.796Z,13.10
2018-03-08T15:06:48.024Z,13.10
2018-03-08T15:09:14.290Z,13.10
2018-03-08T15:11:40.484Z,13.10
2018-03-08T15:14:06.677Z,13.10
2018-03-08T15:16:32.978Z,13.10
2018-03-08T15:18:59.205Z,13.00
2018-03-08T15:21:25.475Z,13.00
2018-03-08T15:23:51.660Z,13.00
2018-03-08T15:26:17.886Z,13.00
2018-03-08T15:28:44.094Z,13.00
2018-03-08T15:31:11.065Z,13.00
2018-03-08T15:33:37.253Z,12.90
2018-03-08T15:36:03.486Z,13.00
2018-03-08T15:38:29.708Z,13.00
2018-03-08T15:40:55.937Z,13.00
2018-03-08T15:43:22.176Z,13.00
2018-03-08T15:45:48.378Z,12.90
2018-03-08T15:48:14.574Z,12.90
2018-03-08T15:50:40.784Z,12.90
2018-03-08T15:53:06.993Z,12.90
2018-03-08T15:55:33.201Z,12.90
2018-03-08T15:57:59.398Z,13.00
2018-03-08T16:00:25.569Z,12.90
2018-03-08T16:02:52.511Z,12.90
2018-03-08T16:05:18.758Z,12.80
2018-03-08T16:11:02.592Z,12.90
2018-03-08T16:13:28.812Z,12.90
2018-03-08T16:15:55.022Z,12.90
2018-03-08T16:18:21.303Z,12.90
2018-03-08T16:20:48.285Z,12.80
2018-03-08T16:23:14.444Z,12.80
2018-03-08T16:25:40.655Z,12.90
2018-03-08T16:28:06.897Z,12.90
2018-03-08T16:30:33.104Z,13.00
2018-03-08T16:32:59.314Z,13.10
2018-03-08T16:35:25.534Z,13.10
2018-03-08T16:37:51.772Z,13.10
2018-03-08T16:40:17.997Z,13.20
2018-03-08T16:42:44.179Z,13.20
2018-03-08T16:45:11.146Z,13.20
2018-03-08T16:47:38.058Z,13.20
2018-03-08T16:50:04.298Z,13.20
2018-03-08T16:52:31.249Z,13.20
2018-03-08T16:54:58.261Z,13.10
2018-03-08T16:57:24.609Z,13.10
2018-03-08T16:59:50.754Z,13.10
2018-03-08T17:02:17.731Z,13.10
2018-03-08T17:04:43.948Z,13.10
2018-03-08T17:07:10.191Z,13.10
2018-03-08T17:09:36.377Z,13.00
2018-03-08T17:12:02.610Z,13.00
2018-03-08T17:14:28.819Z,12.90
2018-03-08T17:16:55.016Z,12.90
2018-03-08T17:19:21.290Z,13.00
2018-03-08T17:21:47.604Z,12.90
2018-03-08T17:24:13.813Z,12.80
2018-03-08T17:26:40.053Z,12.80
2018-03-08T17:29:06.265Z,12.80
2018-03-08T17:31:32.486Z,12.70
2018-03-08T17:33:58.678Z,12.70
2018-03-08T17:36:24.893Z,12.60
2018-03-08T17:38:51.857Z,12.50
2018-03-08T17:41:18.045Z,12.50
2018-03-08T17:43:44.269Z,12.40
2018-03-08T17:46:10.496Z,12.40
2018-03-08T17:48:36.677Z,12.30
2018-03-08T17:51:02.918Z,12.30
2018-03-08T17:53:29.110Z,12.30
2018-03-08T17:55:55.355Z,12.30
2018-03-08T17:58:21.558Z,12.20
2018-03-08T18:00:48.885Z,12.10
2018-03-08T18:03:15.104Z,12.10
2018-03-08T18:05:41.278Z,12.10
2018-03-08T18:08:07.469Z,11.90
2018-03-08T18:10:33.714Z,11.90
2018-03-08T18:12:59.917Z,11.80
2018-03-08T18:15:26.149Z,11.70
2018-03-08T18:17:52.319Z,11.60
2018-03-08T18:20:18.526Z,11.60
2018-03-08T18:22:44.710Z,11.50
2018-03-08T18:25:10.961Z,11.40
2018-03-08T18:27:37.206Z,11.40
2018-03-08T18:30:03.503Z,11.30
2018-03-08T18:32:29.669Z,11.30
2018-03-08T18:34:55.892Z,11.30
2018-03-08T18:37:22.869Z,11.30
2018-03-08T18:39:49.100Z,11.20
2018-03-08T18:42:15.313Z,11.30
2018-03-08T18:44:41.598Z,11.20
2018-03-08T18:47:07.837Z,11.20
2018-03-08T18:49:34.163Z,11.20
2018-03-08T18:52:00.445Z,11.20
2018-03-08T18:54:26.642Z,11.20
2018-03-08T18:56:53.561Z,11.20
2018-03-08T18:59:19.879Z,11.10
2018-03-08T19:01:46.157Z,11.20
2018-03-08T19:04:12.379Z,11.20
2018-03-08T19:06:39.409Z,11.10
2018-03-08T19:09:05.652Z,11.10
2018-03-08T19:11:32.612Z,11.10
2018-03-08T19:13:58.779Z,11.00
2018-03-08T19:16:24.968Z,11.00
2018-03-08T19:18:51.239Z,11.10
2018-03-08T19:21:17.437Z,11.00
2018-03-08T19:23:43.595Z,11.00
2018-03-08T19:26:09.779Z,11.00
2018-03-08T19:28:36.049Z,11.00
2018-03-08T19:31:02.266Z,11.00
2018-03-08T19:33:28.445Z,11.00
2018-03-08T19:35:55.387Z,10.90
2018-03-08T19:38:21.685Z,10.90
2018-03-08T19:40:47.871Z,10.90
2018-03-08T19:43:14.106Z,10.90
2018-03-08T19:45:40.313Z,10.90
2018-03-08T19:48:06.525Z,11.00
2018-03-08T19:50:33.485Z,10.90
2018-03-08T19:52:59.666Z,10.90
2018-03-08T19:55:25.934Z,10.90
2018-03-08T19:57:52.893Z,10.90
2018-03-08T20:00:19.081Z,10.90
2018-03-08T20:02:45.415Z,10.90
2018-03-08T20:05:11.601Z,10.90
2018-03-08T20:07:37.822Z,10.90
2018-03-08T20:10:04.045Z,10.90
2018-03-08T20:12:30.222Z,11.00
2018-03-08T20:14:56.424Z,11.00
2018-03-08T20:17:22.632Z,10.90
2018-03-08T20:19:48.830Z,10.90
2018-03-08T20:22:15.821Z,11.00
2018-03-08T20:24:42.018Z,10.90
2018-03-08T20:27:08.209Z,11.00
2018-03-08T20:29:34.478Z,11.00
2018-03-08T20:32:00.688Z,11.00
2018-03-08T20:34:27.697Z,11.00
2018-03-08T20:36:53.915Z,10.90
2018-03-08T20:39:20.127Z,10.90
2018-03-08T20:41:46.342Z,11.00
2018-03-08T20:44:12.550Z,11.00
2018-03-08T20:46:38.766Z,10.90
2018-03-08T20:49:05.719Z,10.90
2018-03-08T20:51:32.737Z,11.00
2018-03-08T20:53:59.003Z,10.90
2018-03-08T20:56:25.233Z,11.00
2018-03-08T20:58:51.467Z,11.00
2018-03-08T21:01:17.660Z,10.90
2018-03-08T21:03:43.869Z,10.90
2018-03-08T21:06:10.059Z,10.90
2018-03-08T21:08:36.294Z,11.00
2018-03-08T21:11:02.544Z,11.00
2018-03-08T21:13:28.757Z,10.90
2018-03-08T21:15:54.956Z,10.90
2018-03-08T21:18:21.188Z,10.90
2018-03-08T21:20:47.391Z,10.90
2018-03-08T21:23:13.556Z,10.90
2018-03-08T21:25:39.766Z,10.90
2018-03-08T21:28:06.010Z,11.00
2018-03-08T21:30:32.206Z,11.00
2018-03-08T21:32:58.488Z,11.00
2018-03-08T21:35:24.651Z,11.00
2018-03-08T21:37:51.580Z,11.00
2018-03-08T21:40:17.769Z,11.00
2018-03-08T21:42:43.955Z,11.00
2018-03-08T21:45:10.867Z,11.00
2018-03-08T21:47:37.061Z,11.00
2018-03-08T21:50:03.292Z,11.10
2018-03-08T21:52:29.525Z,11.00
2018-03-08T21:54:55.736Z,11.00
2018-03-08T21:57:21.965Z,11.10
2018-03-08T21:59:48.145Z,11.10
2018-03-08T22:02:14.350Z,11.00
2018-03-08T22:04:40.578Z,11.10
2018-03-08T22:07:06.790Z,11.00
2018-03-08T22:09:33.062Z,11.10
2018-03-08T22:11:59.293Z,11.10
2018-03-08T22:14:25.486Z,11.00
2018-03-08T22:16:51.677Z,11.00
2018-03-08T22:19:17.910Z,10.80
2018-03-08T22:21:44.115Z,10.70
2018-03-08T22:24:11.098Z,10.60
2018-03-08T22:26:37.304Z,10.60
2018-03-08T22:29:03.527Z,10.50
2018-03-08T22:31:29.743Z,10.50
2018-03-08T22:33:56.660Z,10.30
2018-03-08T22:36:22.856Z,10.30
2018-03-08T22:38:49.080Z,10.30
2018-03-08T22:41:15.301Z,10.20
2018-03-08T22:43:41.501Z,10.10
2018-03-08T22:46:08.438Z,10.00
2018-03-08T22:48:35.389Z,9.90
2018-03-08T22:51:02.363Z,9.90
2018-03-08T22:53:28.611Z,9.90
2018-03-08T22:55:54.808Z,9.90
2018-03-08T22:58:21.041Z,9.80
2018-03-08T23:00:47.316Z,9.80
2018-03-08T23:03:19.604Z,9.80
2018-03-08T23:05:45.791Z,9.70
2018-03-08T23:08:12.004Z,9.80
2018-03-08T23:10:38.228Z,9.70
2018-03-08T23:13:04.418Z,9.80
2018-03-08T23:15:30.596Z,9.80
2018-03-08T23:17:56.791Z,9.80
2018-03-08T23:20:23.731Z,9.80
2018-03-08T23:22:50.656Z,9.70
2018-03-08T23:25:16.877Z,9.70
2018-03-08T23:27:43.065Z,9.70
2018-03-08T23:30:09.250Z,9.70
2018-03-08T23:32:36.224Z,9.70
2018-03-08T23:35:02.443Z,9.60
2018-03-08T23:37:28.648Z,9.70
2018-03-08T23:39:55.565Z,9.70
2018-03-08T23:42:21.792Z,9.70
2018-03-08T23:44:48.028Z,9.70
2018-03-08T23:47:14.235Z,9.70
2018-03-08T23:49:40.453Z,9.70
2018-03-08T23:52:06.658Z,9.70
2018-03-08T23:54:32.928Z,9.70
2018-03-08T23:56:59.156Z,9.70
2018-03-08T23:59:25.376Z,9.70
